Time;durP1;ratioP1;P1;durP2;ratioP2;P2;SDS_P1;SDS_P2;PMS_P1;PMS_P2;Temp;Humidity;BMP_temperature;BMP_pressure;BME280_temperature;BME280_humidity;BME280_pressure;Samples;Min_cycle;Max_cycle;Signal;HPM_P1;HPM_P2
2022/08/09 00:00:16;;;;;;;;;;;21.60;64.50;;;;;;5052398;28;19931;-51
2022/08/09 00:02:42;;;;;;;;;;;21.50;64.50;;;;;;5043564;28;19936;-52
2022/08/09 00:05:07;;;;;;;;;;;21.50;64.80;;;;;;5031786;28;19913;-54
2022/08/09 00:07:33;;;;;;;;;;;21.30;65.20;;;;;;5042134;28;19970;-49
2022/08/09 00:09:58;;;;;;;;;;;21.30;65.40;;;;;;5051623;28;19917;-51
2022/08/09 00:12:24;;;;;;;;;;;21.20;65.60;;;;;;5051648;28;19975;-50
2022/08/09 00:14:50;;;;;;;;;;;21.10;65.80;;;;;;5052088;28;20007;-52
2022/08/09 00:17:15;;;;;;;;;;;21.10;66.20;;;;;;5051932;28;20430;-50
2022/08/09 00:19:41;;;;;;;;;;;21.10;66.40;;;;;;5051914;28;19923;-50
2022/08/09 00:22:06;;;;;;;;;;;21.10;66.70;;;;;;5051751;28;20399;-50
2022/08/09 00:24:32;;;;;;;;;;;21.00;66.90;;;;;;5052252;28;19936;-49
2022/08/09 00:26:58;;;;;;;;;;;21.00;66.80;;;;;;5051262;28;19917;-49
2022/08/09 00:29:24;;;;;;;;;;;21.00;66.90;;;;;;5051723;28;19916;-55
2022/08/09 00:31:50;;;;;;;;;;;20.90;67.00;;;;;;5050823;28;19920;-51
2022/08/09 00:34:16;;;;;;;;;;;20.90;67.00;;;;;;5051280;28;19916;-55
2022/08/09 00:36:41;;;;;;;;;;;20.80;67.00;;;;;;5050811;28;19913;-52
2022/08/09 00:39:07;;;;;;;;;;;20.60;67.60;;;;;;5051421;28;19917;-53
2022/08/09 00:41:33;;;;;;;;;;;20.50;68.20;;;;;;5051361;28;20545;-54
2022/08/09 00:43:58;;;;;;;;;;;20.50;68.10;;;;;;5050799;28;19920;-51
2022/08/09 00:46:24;;;;;;;;;;;20.30;68.80;;;;;;5050305;28;20380;-52
2022/08/09 00:48:49;;;;;;;;;;;20.40;68.70;;;;;;5048396;28;19917;-53
2022/08/09 00:51:15;;;;;;;;;;;20.40;68.60;;;;;;5048815;28;20610;-53
2022/08/09 00:53:41;;;;;;;;;;;20.40;68.60;;;;;;5049660;28;19924;-55
2022/08/09 00:56:07;;;;;;;;;;;20.30;68.70;;;;;;5049957;28;20387;-51
2022/08/09 00:58:36;;;;;;;;;;;20.30;69.00;;;;;;5050398;28;19913;-50
2022/08/09 01:01:05;;;;;;;;;;;20.30;69.00;;;;;;5049769;28;19924;-50
2022/08/09 01:03:53;;;;;;;;;;;20.30;68.90;;;;;;5036716;28;19917;-51
2022/08/09 01:06:29;;;;;;;;;;;20.20;69.40;;;;;;5034383;28;21557;-50
2022/08/09 01:09:13;;;;;;;;;;;20.30;68.70;;;;;;5051307;28;19913;-49
2022/08/09 01:11:44;;;;;;;;;;;20.20;68.70;;;;;;5048910;28;19916;-52
2022/08/09 01:14:30;;;;;;;;;;;20.20;68.60;;;;;;5051693;28;20416;-53
2022/08/09 01:16:59;;;;;;;;;;;20.10;68.90;;;;;;5038809;28;20414;-52
2022/08/09 01:19:26;;;;;;;;;;;20.00;69.10;;;;;;5051744;28;19913;-54
2022/08/09 01:22:00;;;;;;;;;;;20.00;69.30;;;;;;5052046;28;19935;-50
2022/08/09 01:24:38;;;;;;;;;;;20.00;69.20;;;;;;5034913;28;19920;-53
2022/08/09 01:27:05;;;;;;;;;;;19.90;69.50;;;;;;5054007;28;19920;-52
2022/08/09 01:29:32;;;;;;;;;;;20.00;69.50;;;;;;5054982;28;19994;-50
2022/08/09 01:31:59;;;;;;;;;;;20.00;69.60;;;;;;5054750;28;19960;-49
2022/08/09 01:34:26;;;;;;;;;;;20.10;69.80;;;;;;5055314;28;19917;-49
2022/08/09 01:36:51;;;;;;;;;;;20.00;69.80;;;;;;5054079;28;20372;-49
2022/08/09 01:39:19;;;;;;;;;;;20.00;69.90;;;;;;5055745;28;19909;-53
2022/08/09 01:41:46;;;;;;;;;;;19.90;70.30;;;;;;5055856;28;20373;-54
2022/08/09 01:44:12;;;;;;;;;;;19.90;70.20;;;;;;5055178;28;19913;-52
2022/08/09 01:46:42;;;;;;;;;;;19.90;70.30;;;;;;5054552;28;20008;-53
2022/08/09 01:49:12;;;;;;;;;;;19.90;70.20;;;;;;5055780;28;19921;-52
2022/08/09 01:51:40;;;;;;;;;;;19.80;70.40;;;;;;5054417;28;19920;-49
2022/08/09 01:54:06;;;;;;;;;;;19.70;71.40;;;;;;5054898;28;20011;-50
2022/08/09 01:56:33;;;;;;;;;;;19.70;71.30;;;;;;5054630;28;19995;-53
2022/08/09 01:59:02;;;;;;;;;;;19.70;71.30;;;;;;5055693;28;19913;-53
2022/08/09 02:01:29;;;;;;;;;;;19.70;71.40;;;;;;5050933;28;19921;-50
2022/08/09 02:03:55;;;;;;;;;;;19.70;71.70;;;;;;5050120;28;19912;-52
2022/08/09 02:07:07;;;;;;;;;;;19.70;72.00;;;;;;5053301;28;19913;-54
2022/08/09 02:09:09;;;;;;;;;;;19.70;72.60;;;;;;5053763;28;19921;-51
2022/08/09 02:11:35;;;;;;;;;;;19.60;72.70;;;;;;5053325;28;20299;-50
2022/08/09 02:14:02;;;;;;;;;;;19.70;72.60;;;;;;5053196;28;19912;-52
2022/08/09 02:16:32;;;;;;;;;;;19.60;73.10;;;;;;5051488;28;19956;-51
2022/08/09 02:18:58;;;;;;;;;;;19.50;73.40;;;;;;5054037;28;19917;-50
2022/08/09 02:21:23;;;;;;;;;;;19.40;73.50;;;;;;5053035;28;20011;-51
2022/08/09 02:23:52;;;;;;;;;;;19.40;73.20;;;;;;5053386;28;19917;-53
2022/08/09 02:26:18;;;;;;;;;;;19.20;73.80;;;;;;5053117;28;19969;-50
2022/08/09 02:28:49;;;;;;;;;;;19.20;73.80;;;;;;5053163;28;20368;-49
2022/08/09 02:31:17;;;;;;;;;;;19.10;74.20;;;;;;5052938;28;20058;-49
2022/08/09 02:33:44;;;;;;;;;;;19.10;74.30;;;;;;5053127;28;20394;-50
2022/08/09 02:36:16;;;;;;;;;;;19.00;74.40;;;;;;5051465;28;19923;-51
2022/08/09 02:38:47;;;;;;;;;;;19.00;74.70;;;;;;5053250;28;19915;-50
2022/08/09 02:41:14;;;;;;;;;;;18.90;74.50;;;;;;5052642;28;19916;-50
2022/08/09 02:43:41;;;;;;;;;;;18.70;75.20;;;;;;5051675;28;19920;-51
2022/08/09 02:46:09;;;;;;;;;;;18.70;75.40;;;;;;5052364;28;20292;-50
2022/08/09 02:48:35;;;;;;;;;;;18.60;75.80;;;;;;5052740;28;20019;-52
2022/08/09 02:51:02;;;;;;;;;;;18.50;76.00;;;;;;5052735;28;20300;-51
2022/08/09 02:53:30;;;;;;;;;;;18.50;76.30;;;;;;5052671;28;19920;-58
2022/08/09 02:55:57;;;;;;;;;;;18.40;76.80;;;;;;5052744;28;19971;-52
2022/08/09 02:58:25;;;;;;;;;;;18.30;77.00;;;;;;5052398;28;20004;-51
2022/08/09 03:00:51;;;;;;;;;;;18.40;77.00;;;;;;5052316;28;19967;-53
2022/08/09 03:03:18;;;;;;;;;;;18.30;77.00;;;;;;5052382;28;19913;-53
2022/08/09 03:05:43;;;;;;;;;;;18.20;77.70;;;;;;5052077;28;19913;-51
2022/08/09 03:08:09;;;;;;;;;;;18.20;77.80;;;;;;5052490;28;19959;-54
2022/08/09 03:10:36;;;;;;;;;;;18.20;77.80;;;;;;5052613;28;20330;-50
2022/08/09 03:13:02;;;;;;;;;;;18.20;77.80;;;;;;5053258;28;19913;-53
2022/08/09 03:15:28;;;;;;;;;;;18.10;78.10;;;;;;5052540;28;19949;-51
2022/08/09 03:17:54;;;;;;;;;;;18.20;78.10;;;;;;5052073;28;19908;-50
2022/08/09 03:20:19;;;;;;;;;;;18.10;78.40;;;;;;5052677;28;19909;-49
2022/08/09 03:22:46;;;;;;;;;;;18.10;78.60;;;;;;5052769;28;19913;-51
2022/08/09 03:25:12;;;;;;;;;;;18.10;78.60;;;;;;5052112;28;20343;-52
2022/08/09 03:27:39;;;;;;;;;;;18.10;78.70;;;;;;5051847;28;19920;-51
2022/08/09 03:30:05;;;;;;;;;;;18.10;78.80;;;;;;5051819;28;20015;-51
2022/08/09 03:32:32;;;;;;;;;;;18.20;78.80;;;;;;5051936;28;20356;-51
2022/08/09 03:34:58;;;;;;;;;;;18.10;79.10;;;;;;5052137;28;19913;-52
2022/08/09 03:37:24;;;;;;;;;;;18.10;79.00;;;;;;5050842;28;19917;-51
2022/08/09 03:39:50;;;;;;;;;;;18.00;79.50;;;;;;5052220;28;19959;-52
2022/08/09 03:42:15;;;;;;;;;;;18.00;79.40;;;;;;5051434;28;20396;-49
2022/08/09 03:44:41;;;;;;;;;;;18.00;79.80;;;;;;5052502;28;19920;-50
2022/08/09 03:47:07;;;;;;;;;;;18.00;79.90;;;;;;5052005;28;20330;-51
2022/08/09 03:49:33;;;;;;;;;;;18.10;79.40;;;;;;5052157;28;19974;-49
2022/08/09 03:52:00;;;;;;;;;;;18.00;79.60;;;;;;5052232;28;19916;-53
2022/08/09 03:54:28;;;;;;;;;;;18.00;80.20;;;;;;5053093;28;20568;-53
2022/08/09 03:56:53;;;;;;;;;;;17.90;80.10;;;;;;5053427;28;19998;-54
2022/08/09 03:59:19;;;;;;;;;;;17.90;80.30;;;;;;5053740;28;19917;-52
2022/08/09 04:01:45;;;;;;;;;;;17.80;80.50;;;;;;5053346;28;19913;-52
2022/08/09 04:04:12;;;;;;;;;;;17.70;81.20;;;;;;5052150;28;20023;-52
2022/08/09 04:06:38;;;;;;;;;;;17.70;81.40;;;;;;5051713;28;19999;-51
2022/08/09 04:09:05;;;;;;;;;;;17.70;81.20;;;;;;5051032;28;19959;-53
2022/08/09 04:11:49;;;;;;;;;;;17.70;81.60;;;;;;5052435;28;19917;-52
2022/08/09 04:14:19;;;;;;;;;;;17.80;81.40;;;;;;5051466;28;19920;-49
2022/08/09 04:16:44;;;;;;;;;;;17.80;81.60;;;;;;5041479;28;19999;-54
2022/08/09 04:19:10;;;;;;;;;;;17.80;81.70;;;;;;5051948;28;20396;-50
2022/08/09 04:21:35;;;;;;;;;;;17.70;81.70;;;;;;5052727;28;19971;-50
2022/08/09 04:24:01;;;;;;;;;;;17.70;81.90;;;;;;5052306;28;19920;-54
2022/08/09 04:26:26;;;;;;;;;;;17.70;81.70;;;;;;5051856;28;20384;-52
2022/08/09 04:28:52;;;;;;;;;;;17.70;82.00;;;;;;5051795;28;19928;-52
2022/08/09 04:31:17;;;;;;;;;;;17.70;81.90;;;;;;5052281;28;19924;-52
2022/08/09 04:33:43;;;;;;;;;;;17.70;82.30;;;;;;5051343;28;19913;-55
2022/08/09 04:36:08;;;;;;;;;;;17.60;82.50;;;;;;5051858;28;19919;-55
2022/08/09 04:38:34;;;;;;;;;;;17.50;82.80;;;;;;5036391;28;19917;-53
2022/08/09 04:40:59;;;;;;;;;;;17.50;83.20;;;;;;5051979;28;19917;-55
2022/08/09 04:43:25;;;;;;;;;;;17.60;83.00;;;;;;5051870;28;19913;-50
2022/08/09 04:45:50;;;;;;;;;;;17.60;83.00;;;;;;5051428;28;19974;-52
2022/08/09 04:48:16;;;;;;;;;;;17.70;83.00;;;;;;5051977;28;19920;-51
2022/08/09 04:50:43;;;;;;;;;;;17.50;83.60;;;;;;5051671;28;19921;-49
2022/08/09 04:53:09;;;;;;;;;;;17.50;83.70;;;;;;5051757;28;19963;-51
2022/08/09 04:55:35;;;;;;;;;;;17.50;84.40;;;;;;5052322;28;19916;-50
2022/08/09 04:58:00;;;;;;;;;;;17.60;84.90;;;;;;5052160;28;19917;-53
2022/08/09 05:00:26;;;;;;;;;;;17.70;84.40;;;;;;5054845;28;19924;-52
2022/08/09 05:02:51;;;;;;;;;;;17.90;83.90;;;;;;5055162;28;19920;-51
2022/08/09 05:05:17;;;;;;;;;;;18.00;83.50;;;;;;5054806;28;19915;-49
2022/08/09 05:07:42;;;;;;;;;;;18.10;83.00;;;;;;5055206;28;19913;-50
2022/08/09 05:10:08;;;;;;;;;;;18.10;83.40;;;;;;5055661;28;19928;-50
2022/08/09 05:12:34;;;;;;;;;;;18.20;83.20;;;;;;5055882;28;19913;-48
2022/08/09 05:14:59;;;;;;;;;;;18.30;82.80;;;;;;5054022;28;19920;-55
2022/08/09 05:17:25;;;;;;;;;;;18.30;83.20;;;;;;5053492;28;19944;-51
2022/08/09 05:19:52;;;;;;;;;;;18.20;84.00;;;;;;5054235;28;19917;-53
2022/08/09 05:22:17;;;;;;;;;;;18.30;83.50;;;;;;5041027;28;19948;-49
2022/08/09 05:24:43;;;;;;;;;;;18.30;83.50;;;;;;5045722;28;19913;-53
2022/08/09 05:27:08;;;;;;;;;;;18.40;83.30;;;;;;5054019;28;19960;-49
2022/08/09 05:29:34;;;;;;;;;;;18.40;83.20;;;;;;5054148;28;20443;-51
2022/08/09 05:32:00;;;;;;;;;;;18.60;82.90;;;;;;5054565;28;19920;-49
2022/08/09 05:34:26;;;;;;;;;;;18.70;82.30;;;;;;5055023;28;19917;-50
2022/08/09 05:36:52;;;;;;;;;;;18.70;82.80;;;;;;5055311;28;19920;-55
2022/08/09 05:39:17;;;;;;;;;;;18.80;82.30;;;;;;5054381;28;19913;-54
2022/08/09 05:41:43;;;;;;;;;;;18.60;82.80;;;;;;5053922;28;19913;-50
2022/08/09 05:44:09;;;;;;;;;;;18.60;83.30;;;;;;5054471;28;20423;-50
2022/08/09 05:46:35;;;;;;;;;;;18.50;83.80;;;;;;5053900;28;19913;-51
2022/08/09 05:49:01;;;;;;;;;;;18.60;83.60;;;;;;5054787;28;20086;-53
2022/08/09 05:51:26;;;;;;;;;;;18.80;83.40;;;;;;5054903;28;19909;-56
2022/08/09 05:53:52;;;;;;;;;;;18.80;83.20;;;;;;5054303;28;19995;-48
2022/08/09 05:56:17;;;;;;;;;;;18.90;83.10;;;;;;5054086;28;19908;-53
2022/08/09 05:58:43;;;;;;;;;;;19.00;82.60;;;;;;5053734;28;19916;-51
2022/08/09 06:01:09;;;;;;;;;;;19.10;82.40;;;;;;5054124;28;19967;-54
2022/08/09 06:03:35;;;;;;;;;;;19.20;82.10;;;;;;5054855;28;19909;-50
2022/08/09 06:06:01;;;;;;;;;;;19.20;82.40;;;;;;5054721;28;19920;-56
2022/08/09 06:08:26;;;;;;;;;;;19.20;82.20;;;;;;5054401;28;20003;-51
2022/08/09 06:10:55;;;;;;;;;;;19.30;82.40;;;;;;5054128;28;19923;-50
2022/08/09 06:13:20;;;;;;;;;;;19.30;82.30;;;;;;5052208;28;19929;-53
2022/08/09 06:15:47;;;;;;;;;;;19.40;82.20;;;;;;5054051;28;19920;-47
2022/08/09 06:18:13;;;;;;;;;;;19.30;82.40;;;;;;5054486;28;19924;-52
2022/08/09 06:20:38;;;;;;;;;;;19.40;82.30;;;;;;5054374;28;19920;-50
2022/08/09 06:23:04;;;;;;;;;;;19.30;82.40;;;;;;5054645;28;19917;-51
2022/08/09 06:25:29;;;;;;;;;;;19.30;82.60;;;;;;5053783;28;20369;-50
2022/08/09 06:27:55;;;;;;;;;;;19.20;83.00;;;;;;5054580;28;19913;-53
2022/08/09 06:30:20;;;;;;;;;;;19.30;82.80;;;;;;5035507;28;19929;-52
2022/08/09 06:32:46;;;;;;;;;;;19.40;82.30;;;;;;5054129;28;20037;-50
2022/08/09 06:35:12;;;;;;;;;;;19.40;82.00;;;;;;5052309;28;20280;-48
2022/08/09 06:37:37;;;;;;;;;;;19.50;81.90;;;;;;5053463;28;19967;-52
2022/08/09 06:40:03;;;;;;;;;;;19.60;82.10;;;;;;5053079;28;19967;-51
2022/08/09 06:42:29;;;;;;;;;;;19.60;81.60;;;;;;5052936;28;20028;-50
2022/08/09 06:44:55;;;;;;;;;;;19.60;81.80;;;;;;5053335;28;19920;-52
2022/08/09 06:47:21;;;;;;;;;;;19.60;82.30;;;;;;5052922;28;19924;-49
2022/08/09 06:49:47;;;;;;;;;;;19.60;81.90;;;;;;5052785;28;19946;-52
2022/08/09 06:52:13;;;;;;;;;;;19.70;81.80;;;;;;5053537;28;19916;-50
2022/08/09 06:54:38;;;;;;;;;;;19.80;81.30;;;;;;5053157;28;20422;-53
2022/08/09 06:57:04;;;;;;;;;;;19.70;81.60;;;;;;5052554;28;20024;-51
2022/08/09 06:59:30;;;;;;;;;;;19.70;82.10;;;;;;5051098;28;19917;-54
2022/08/09 07:01:55;;;;;;;;;;;19.80;82.00;;;;;;5052320;28;19924;-53
2022/08/09 07:04:21;;;;;;;;;;;19.80;81.50;;;;;;5049788;28;19921;-50
2022/08/09 07:06:47;;;;;;;;;;;20.00;81.10;;;;;;5052214;28;19921;-51
2022/08/09 07:09:12;;;;;;;;;;;20.00;80.90;;;;;;5052672;28;19925;-52
2022/08/09 07:11:38;;;;;;;;;;;20.10;80.90;;;;;;5052855;28;20336;-52
2022/08/09 07:14:04;;;;;;;;;;;20.20;80.80;;;;;;5052443;28;19913;-51
2022/08/09 07:16:29;;;;;;;;;;;20.30;80.30;;;;;;5051584;28;19943;-52
2022/08/09 07:18:55;;;;;;;;;;;20.40;80.00;;;;;;5052098;28;20450;-50
2022/08/09 07:21:20;;;;;;;;;;;20.50;79.80;;;;;;5050343;28;20373;-54
2022/08/09 07:23:46;;;;;;;;;;;20.50;80.10;;;;;;5052710;28;19960;-50
2022/08/09 07:26:11;;;;;;;;;;;20.40;80.00;;;;;;5051886;28;19921;-51
2022/08/09 07:28:37;;;;;;;;;;;20.60;79.60;;;;;;5048071;28;19914;-52
2022/08/09 07:31:06;;;;;;;;;;;20.60;78.90;;;;;;5045255;28;19944;-52
2022/08/09 07:33:32;;;;;;;;;;;20.60;79.20;;;;;;5052758;28;19917;-53
2022/08/09 07:35:57;;;;;;;;;;;20.60;79.40;;;;;;5051364;28;20288;-51
2022/08/09 07:38:23;;;;;;;;;;;20.50;79.80;;;;;;5046766;28;19913;-49
2022/08/09 07:40:49;;;;;;;;;;;20.40;79.50;;;;;;5050823;28;20390;-53
2022/08/09 07:43:14;;;;;;;;;;;20.20;79.90;;;;;;5051306;28;19927;-52
2022/08/09 07:45:40;;;;;;;;;;;20.40;79.90;;;;;;5051348;28;20008;-48
2022/08/09 07:48:06;;;;;;;;;;;20.50;79.50;;;;;;5051742;28;19915;-50
2022/08/09 07:50:32;;;;;;;;;;;20.50;79.60;;;;;;5051508;28;19920;-49
2022/08/09 07:52:58;;;;;;;;;;;20.50;79.50;;;;;;5051678;28;19925;-51
2022/08/09 07:55:24;;;;;;;;;;;20.60;79.10;;;;;;5050511;28;19918;-50
2022/08/09 07:57:49;;;;;;;;;;;20.80;79.00;;;;;;5051817;28;19917;-48
2022/08/09 08:00:16;;;;;;;;;;;21.00;78.90;;;;;;5052208;28;19917;-51
2022/08/09 08:02:41;;;;;;;;;;;21.00;77.90;;;;;;5052468;28;19917;-49
2022/08/09 08:05:07;;;;;;;;;;;21.30;77.60;;;;;;5051328;28;19962;-51
2022/08/09 08:07:33;;;;;;;;;;;21.40;77.10;;;;;;5050701;28;19954;-49
2022/08/09 08:09:58;;;;;;;;;;;21.40;77.10;;;;;;5049941;28;19917;-52
2022/08/09 08:12:24;;;;;;;;;;;21.50;76.30;;;;;;5051227;28;19913;-53
2022/08/09 08:14:50;;;;;;;;;;;21.50;76.20;;;;;;5050795;28;19985;-55
2022/08/09 08:17:16;;;;;;;;;;;21.60;76.40;;;;;;5051590;28;19913;-51
2022/08/09 08:19:41;;;;;;;;;;;21.90;75.90;;;;;;5052019;28;19919;-52
2022/08/09 08:22:07;;;;;;;;;;;22.10;75.30;;;;;;5052057;28;19916;-53
2022/08/09 08:24:32;;;;;;;;;;;21.80;75.10;;;;;;5052475;28;19974;-49
2022/08/09 08:26:58;;;;;;;;;;;22.00;75.40;;;;;;5050962;28;19917;-52
2022/08/09 08:29:24;;;;;;;;;;;22.30;74.70;;;;;;5042891;28;20464;-47
2022/08/09 08:31:49;;;;;;;;;;;22.20;74.10;;;;;;5051584;28;20023;-47
2022/08/09 08:34:15;;;;;;;;;;;22.40;73.80;;;;;;5054276;28;19960;-49
2022/08/09 08:36:40;;;;;;;;;;;22.40;73.40;;;;;;5054779;28;19936;-48
2022/08/09 08:39:06;;;;;;;;;;;22.40;73.30;;;;;;5055360;28;19959;-48
2022/08/09 08:41:32;;;;;;;;;;;22.40;73.50;;;;;;5056405;28;19921;-49
2022/08/09 08:43:57;;;;;;;;;;;22.50;73.80;;;;;;5055313;28;19938;-49
2022/08/09 08:46:26;;;;;;;;;;;22.60;73.30;;;;;;5055049;28;19956;-48
2022/08/09 08:48:52;;;;;;;;;;;22.80;73.00;;;;;;5055293;28;19912;-50
2022/08/09 08:51:18;;;;;;;;;;;23.00;73.10;;;;;;5056571;28;20399;-53
2022/08/09 08:53:43;;;;;;;;;;;23.00;72.10;;;;;;5055231;28;19921;-51
2022/08/09 08:56:09;;;;;;;;;;;23.20;71.60;;;;;;5055044;28;19913;-50
2022/08/09 08:58:34;;;;;;;;;;;22.90;72.60;;;;;;5054790;28;19917;-49
2022/08/09 09:01:02;;;;;;;;;;;23.00;72.50;;;;;;5055830;28;19970;-48
2022/08/09 09:03:32;;;;;;;;;;;23.00;72.70;;;;;;5043022;28;20203;-48
2022/08/09 09:05:59;;;;;;;;;;;23.10;72.50;;;;;;5037318;28;20387;-46
2022/08/09 09:08:24;;;;;;;;;;;22.90;72.90;;;;;;5041372;28;19991;-49
2022/08/09 09:10:51;;;;;;;;;;;23.10;72.70;;;;;;5055257;28;19964;-46
2022/08/09 09:13:16;;;;;;;;;;;23.30;72.10;;;;;;5057793;28;20295;-48
2022/08/09 09:15:42;;;;;;;;;;;23.50;72.00;;;;;;5055490;28;19996;-50
2022/08/09 09:18:12;;;;;;;;;;;23.40;71.90;;;;;;5055109;28;20254;-51
2022/08/09 09:20:38;;;;;;;;;;;23.00;72.30;;;;;;5055155;28;20288;-51
2022/08/09 09:23:03;;;;;;;;;;;22.60;74.80;;;;;;5054790;28;19966;-46
2022/08/09 09:25:31;;;;;;;;;;;22.80;73.90;;;;;;5055044;28;19916;-47
2022/08/09 09:27:57;;;;;;;;;;;22.70;73.60;;;;;;5055033;28;19913;-48
2022/08/09 09:30:23;;;;;;;;;;;22.70;73.10;;;;;;5054070;28;20372;-46
2022/08/09 09:32:59;;;;;;;;;;;23.00;72.40;;;;;;5054694;28;19920;-50
2022/08/09 09:35:25;;;;;;;;;;;23.20;71.80;;;;;;5054430;28;19909;-47
2022/08/09 09:37:52;;;;;;;;;;;23.20;70.20;;;;;;5054274;28;19974;-51
2022/08/09 09:40:18;;;;;;;;;;;23.30;69.70;;;;;;5054029;28;19913;-50
2022/08/09 09:42:53;;;;;;;;;;;23.50;70.00;;;;;;5054263;28;20398;-48
2022/08/09 09:45:19;;;;;;;;;;;23.70;70.10;;;;;;5052778;28;19913;-47
2022/08/09 09:47:45;;;;;;;;;;;23.60;69.20;;;;;;5053870;28;19919;-49
2022/08/09 09:50:10;;;;;;;;;;;23.50;69.40;;;;;;5054109;28;19916;-52
2022/08/09 09:52:47;;;;;;;;;;;23.70;69.60;;;;;;5054814;28;19921;-47
2022/08/09 09:55:14;;;;;;;;;;;23.90;70.60;;;;;;5054443;28;20442;-48
2022/08/09 09:57:39;;;;;;;;;;;24.10;69.90;;;;;;5053805;28;20055;-49
2022/08/09 10:00:20;;;;;;;;;;;24.20;69.70;;;;;;5053759;28;20011;-50
2022/08/09 10:02:46;;;;;;;;;;;24.30;69.30;;;;;;5053053;28;19909;-47
2022/08/09 10:05:11;;;;;;;;;;;24.20;69.50;;;;;;5033650;28;19917;-50
2022/08/09 10:07:37;;;;;;;;;;;24.20;68.90;;;;;;5034667;28;19921;-49
2022/08/09 10:10:03;;;;;;;;;;;24.30;68.50;;;;;;5053889;28;20078;-49
2022/08/09 10:12:31;;;;;;;;;;;24.30;67.60;;;;;;5052306;28;19920;-53
2022/08/09 10:15:06;;;;;;;;;;;24.50;66.70;;;;;;5053986;28;20377;-49
2022/08/09 10:17:33;;;;;;;;;;;24.80;65.00;;;;;;5053801;28;19909;-52
2022/08/09 10:19:59;;;;;;;;;;;25.00;64.40;;;;;;5053776;28;20020;-52
2022/08/09 10:22:35;;;;;;;;;;;25.20;63.20;;;;;;5053471;28;19921;-50
2022/08/09 10:25:03;;;;;;;;;;;25.50;62.70;;;;;;5053289;28;19913;-50
2022/08/09 10:27:29;;;;;;;;;;;25.50;64.40;;;;;;5054121;28;19948;-53
2022/08/09 10:29:55;;;;;;;;;;;25.20;63.90;;;;;;5053961;28;19959;-52
2022/08/09 10:32:21;;;;;;;;;;;25.20;64.50;;;;;;5053030;28;19952;-47
2022/08/09 10:34:47;;;;;;;;;;;25.20;64.50;;;;;;5052743;28;19913;-48
2022/08/09 10:37:13;;;;;;;;;;;25.20;64.80;;;;;;5052778;28;19913;-49
2022/08/09 10:39:39;;;;;;;;;;;25.20;64.50;;;;;;5053154;28;19971;-52
2022/08/09 10:42:04;;;;;;;;;;;25.20;64.70;;;;;;5052413;28;20392;-48
2022/08/09 10:44:31;;;;;;;;;;;25.10;64.30;;;;;;5053079;28;19917;-50
2022/08/09 10:47:17;;;;;;;;;;;25.30;64.40;;;;;;5053192;28;19913;-53
2022/08/09 10:49:47;;;;;;;;;;;25.50;64.00;;;;;;5052701;28;20000;-51
2022/08/09 10:52:13;;;;;;;;;;;25.70;63.60;;;;;;5052820;28;19924;-46
2022/08/09 10:54:39;;;;;;;;;;;25.80;62.80;;;;;;5053079;28;19915;-52
2022/08/09 10:57:14;;;;;;;;;;;26.00;62.30;;;;;;5051921;28;19916;-51
2022/08/09 10:59:40;;;;;;;;;;;26.10;61.00;;;;;;5053207;28;19948;-48
2022/08/09 11:02:07;;;;;;;;;;;26.30;60.60;;;;;;5052246;28;19912;-50
2022/08/09 11:04:33;;;;;;;;;;;26.30;61.80;;;;;;5037373;28;19955;-49
2022/08/09 11:06:59;;;;;;;;;;;26.40;60.60;;;;;;5032268;28;19920;-50
2022/08/09 11:09:37;;;;;;;;;;;26.20;60.50;;;;;;5050195;28;20438;-46
2022/08/09 11:12:15;;;;;;;;;;;26.10;60.30;;;;;;5052051;28;20407;-51
2022/08/09 11:14:43;;;;;;;;;;;26.40;59.90;;;;;;5052633;28;19913;-47
2022/08/09 11:17:12;;;;;;;;;;;26.40;58.60;;;;;;5051843;28;19925;-49
2022/08/09 11:19:54;;;;;;;;;;;26.40;58.90;;;;;;5050730;28;20015;-49
2022/08/09 11:22:20;;;;;;;;;;;26.50;58.60;;;;;;5052261;28;20007;-50
2022/08/09 11:25:06;;;;;;;;;;;26.60;59.00;;;;;;5051141;28;19913;-50
2022/08/09 11:27:37;;;;;;;;;;;26.70;58.80;;;;;;5052285;28;19919;-51
2022/08/09 11:30:07;;;;;;;;;;;26.70;56.80;;;;;;5051811;28;19928;-47
2022/08/09 11:32:46;;;;;;;;;;;26.80;56.90;;;;;;5031950;28;19917;-47
2022/08/09 11:35:14;;;;;;;;;;;26.80;57.60;;;;;;5049479;28;19979;-52
2022/08/09 11:37:41;;;;;;;;;;;26.90;57.20;;;;;;5052684;28;19913;-49
2022/08/09 11:40:07;;;;;;;;;;;27.00;56.90;;;;;;5052152;28;19916;-50
2022/08/09 11:42:40;;;;;;;;;;;27.10;56.80;;;;;;5051771;28;19996;-50
2022/08/09 11:45:17;;;;;;;;;;;27.30;56.60;;;;;;5053831;28;19970;-54
2022/08/09 11:47:50;;;;;;;;;;;27.10;56.40;;;;;;5052435;28;19908;-49
2022/08/09 11:50:16;;;;;;;;;;;27.10;56.10;;;;;;5051676;28;20442;-47
2022/08/09 11:52:59;;;;;;;;;;;27.00;55.40;;;;;;5052064;28;19921;-49
2022/08/09 11:55:29;;;;;;;;;;;27.00;54.90;;;;;;5051911;28;20066;-50
2022/08/09 11:57:55;;;;;;;;;;;27.00;55.80;;;;;;5051887;28;20376;-51
2022/08/09 12:00:21;;;;;;;;;;;27.10;54.90;;;;;;5051866;28;19938;-52
2022/08/09 12:02:47;;;;;;;;;;;27.10;54.70;;;;;;5052162;28;19917;-51
2022/08/09 12:05:13;;;;;;;;;;;27.10;55.20;;;;;;5038739;28;19925;-47
2022/08/09 12:07:39;;;;;;;;;;;27.40;54.90;;;;;;5031709;28;19913;-51
2022/08/09 12:10:05;;;;;;;;;;;27.50;54.70;;;;;;5043601;28;19975;-53
2022/08/09 12:12:46;;;;;;;;;;;27.40;54.50;;;;;;5052375;28;19909;-47
2022/08/09 12:15:22;;;;;;;;;;;27.50;53.90;;;;;;5049023;28;19920;-49
2022/08/09 12:17:49;;;;;;;;;;;27.70;52.70;;;;;;5048248;28;19909;-51
2022/08/09 12:20:15;;;;;;;;;;;28.00;53.30;;;;;;5036541;28;19921;-50
2022/08/09 12:22:41;;;;;;;;;;;28.00;53.30;;;;;;5043268;28;20357;-51
2022/08/09 12:25:14;;;;;;;;;;;27.90;53.20;;;;;;5032557;28;19945;-51
2022/08/09 12:27:40;;;;;;;;;;;27.80;53.40;;;;;;5041756;28;19958;-50
2022/08/09 12:30:06;;;;;;;;;;;27.70;54.00;;;;;;5049285;28;19923;-48
2022/08/09 12:32:32;;;;;;;;;;;28.10;54.20;;;;;;5051327;28;19923;-47
2022/08/09 12:34:59;;;;;;;;;;;28.20;53.90;;;;;;5050442;28;19935;-52
2022/08/09 12:37:38;;;;;;;;;;;28.00;54.20;;;;;;5050630;28;19912;-54
2022/08/09 12:40:05;;;;;;;;;;;27.70;54.90;;;;;;5052282;28;19909;-52
2022/08/09 12:42:31;;;;;;;;;;;27.80;54.80;;;;;;5050842;28;19919;-49
2022/08/09 12:44:57;;;;;;;;;;;27.90;55.00;;;;;;5053044;28;20003;-49
2022/08/09 12:47:23;;;;;;;;;;;28.00;53.80;;;;;;5052576;28;20402;-50
2022/08/09 12:52:40;;;;;;;;;;;28.20;53.50;;;;;;5051709;28;19964;-50
2022/08/09 12:55:08;;;;;;;;;;;28.30;53.20;;;;;;5051652;28;19917;-50
2022/08/09 12:57:41;;;;;;;;;;;28.20;53.00;;;;;;5051285;28;20276;-52
2022/08/09 13:00:16;;;;;;;;;;;27.70;53.80;;;;;;5051677;28;19917;-48
2022/08/09 13:02:51;;;;;;;;;;;27.60;54.10;;;;;;5051130;28;20294;-51
2022/08/09 13:05:17;;;;;;;;;;;27.60;54.10;;;;;;5051308;28;19916;-50
2022/08/09 13:08:02;;;;;;;;;;;27.80;54.20;;;;;;5051581;28;19909;-47
2022/08/09 13:10:28;;;;;;;;;;;28.00;54.30;;;;;;5050916;28;19987;-50
2022/08/09 13:12:54;;;;;;;;;;;28.40;54.20;;;;;;5050972;28;20364;-51
2022/08/09 13:15:19;;;;;;;;;;;28.90;53.90;;;;;;5052864;28;19912;-49
2022/08/09 13:17:45;;;;;;;;;;;29.10;53.00;;;;;;5052226;28;19909;-50
2022/08/09 13:20:10;;;;;;;;;;;29.00;52.50;;;;;;5053925;28;19912;-53
2022/08/09 13:22:46;;;;;;;;;;;28.70;52.10;;;;;;5056441;28;20299;-51
2022/08/09 13:25:11;;;;;;;;;;;28.60;52.50;;;;;;5055989;28;19909;-49
2022/08/09 13:27:38;;;;;;;;;;;28.40;52.60;;;;;;5054916;28;20322;-52
2022/08/09 13:30:17;;;;;;;;;;;28.30;52.50;;;;;;5055227;28;19992;-49
2022/08/09 13:32:50;;;;;;;;;;;28.10;53.20;;;;;;5055053;28;19974;-51
2022/08/09 13:35:19;;;;;;;;;;;27.70;53.70;;;;;;5054845;28;19913;-49
2022/08/09 13:37:45;;;;;;;;;;;27.60;53.90;;;;;;5054718;28;19913;-50
2022/08/09 13:40:11;;;;;;;;;;;27.70;54.00;;;;;;5054710;28;20096;-48
2022/08/09 13:42:37;;;;;;;;;;;27.60;54.10;;;;;;5055021;28;19924;-52
2022/08/09 13:45:03;;;;;;;;;;;27.70;53.80;;;;;;5041092;28;19909;-49
2022/08/09 13:47:31;;;;;;;;;;;27.90;53.80;;;;;;5035449;28;19935;-52
2022/08/09 13:50:01;;;;;;;;;;;28.40;53.20;;;;;;5035095;28;19989;-48
2022/08/09 13:52:27;;;;;;;;;;;29.00;52.00;;;;;;5034815;28;19967;-54
2022/08/09 13:54:53;;;;;;;;;;;29.30;51.10;;;;;;5036077;28;19909;-51
2022/08/09 13:57:18;;;;;;;;;;;29.40;50.90;;;;;;5035259;28;20281;-51
2022/08/09 13:59:44;;;;;;;;;;;29.50;50.30;;;;;;5033742;28;19991;-49
2022/08/09 14:02:09;;;;;;;;;;;29.60;50.60;;;;;;5045244;28;19920;-53
2022/08/09 14:04:35;;;;;;;;;;;29.70;51.10;;;;;;5054644;28;19913;-48
2022/08/09 14:07:01;;;;;;;;;;;29.80;51.90;;;;;;5054076;28;19923;-51
2022/08/09 14:09:27;;;;;;;;;;;30.00;51.60;;;;;;5054839;28;19939;-47
2022/08/09 14:11:54;;;;;;;;;;;30.00;51.70;;;;;;5054441;28;20364;-48
2022/08/09 14:14:20;;;;;;;;;;;29.80;51.60;;;;;;5054545;28;20140;-52
2022/08/09 14:16:49;;;;;;;;;;;29.50;52.00;;;;;;5042376;28;19917;-51
2022/08/09 14:19:15;;;;;;;;;;;29.00;52.90;;;;;;5033843;28;20296;-52